Time;durP1;ratioP1;P1;durP2;ratioP2;P2;SDS_P1;SDS_P2;PMS_P1;PMS_P2;Temp;Humidity;BMP_temperature;BMP_pressure;BME280_temperature;BME280_humidity;BME280_pressure;Samples;Min_cycle;Max_cycle;Signal;HPM_P1;HPM_P2
2022/08/21 00:00:56;;;;;;;1.15;0.88;;;;;;;;;;5109543;27;20429;-44
2022/08/21 00:03:21;;;;;;;1.42;1.00;;;;;;;;;;5112298;28;20510;-42
2022/08/21 00:05:49;;;;;;;0.98;0.65;;;;;;;;;;5112807;28;20478;-42
2022/08/21 00:08:15;;;;;;;1.23;0.73;;;;;;;;;;5112044;28;20051;-42
2022/08/21 00:10:42;;;;;;;1.10;0.73;;;;;;;;;;5112521;28;20067;-43
2022/08/21 00:13:08;;;;;;;3.13;1.48;;;;;;;;;;5113656;28;20554;-44
2022/08/21 00:15:35;;;;;;;2.83;1.67;;;;;;;;;;5112092;28;20071;-43
2022/08/21 00:18:01;;;;;;;2.55;1.75;;;;;;;;;;5112263;28;20098;-42
2022/08/21 00:20:26;;;;;;;4.65;1.20;;;;;;;;;;5113257;28;20063;-42
2022/08/21 00:22:52;;;;;;;3.65;0.98;;;;;;;;;;5112981;28;20067;-47
2022/08/21 00:25:19;;;;;;;0.90;0.73;;;;;;;;;;5113853;28;20127;-42
2022/08/21 00:27:46;;;;;;;3.03;1.20;;;;;;;;;;5112554;28;20051;-43
2022/08/21 00:30:12;;;;;;;1.52;1.08;;;;;;;;;;5114176;28;20055;-42
2022/08/21 00:32:38;;;;;;;3.22;0.93;;;;;;;;;;5113285;27;20039;-41
2022/08/21 00:35:08;;;;;;;3.30;1.65;;;;;;;;;;5113276;28;20058;-43
2022/08/21 00:37:34;;;;;;;1.40;0.75;;;;;;;;;;5113507;28;20483;-45
2022/08/21 00:39:59;;;;;;;1.40;0.65;;;;;;;;;;5113174;28;20103;-45
2022/08/21 00:42:25;;;;;;;2.35;1.00;;;;;;;;;;5113263;28;20023;-46
2022/08/21 00:44:50;;;;;;;1.23;0.75;;;;;;;;;;5112707;28;20066;-45
2022/08/21 00:47:16;;;;;;;1.48;0.90;;;;;;;;;;5112346;28;20066;-44
2022/08/21 00:49:42;;;;;;;2.70;0.88;;;;;;;;;;5113183;28;20091;-42
2022/08/21 00:52:09;;;;;;;0.95;0.68;;;;;;;;;;5110026;28;20039;-48
2022/08/21 00:54:35;;;;;;;2.50;0.73;;;;;;;;;;5110002;28;20035;-48
2022/08/21 00:57:04;;;;;;;2.35;1.60;;;;;;;;;;5109299;28;20066;-44
2022/08/21 00:59:32;;;;;;;1.20;0.63;;;;;;;;;;5109638;28;20072;-44
2022/08/21 01:01:57;;;;;;;2.72;0.70;;;;;;;;;;5109311;28;20046;-43
2022/08/21 01:04:23;;;;;;;0.80;0.47;;;;;;;;;;5109632;28;20044;-46
2022/08/21 01:06:49;;;;;;;2.58;0.80;;;;;;;;;;5107089;28;20043;-47
2022/08/21 01:09:14;;;;;;;1.25;0.77;;;;;;;;;;5108897;28;20081;-45
2022/08/21 01:11:42;;;;;;;1.13;0.70;;;;;;;;;;5109316;28;20054;-47
2022/08/21 01:14:10;;;;;;;1.48;0.98;;;;;;;;;;5108830;28;20043;-43
2022/08/21 01:16:35;;;;;;;1.67;0.98;;;;;;;;;;5107709;28;20048;-44
2022/08/21 01:19:00;;;;;;;0.73;0.47;;;;;;;;;;5107410;28;20179;-46
2022/08/21 01:21:26;;;;;;;1.40;1.10;;;;;;;;;;5109047;28;20455;-47
2022/08/21 01:23:53;;;;;;;2.30;0.90;;;;;;;;;;5108844;28;20046;-44
2022/08/21 01:26:20;;;;;;;12.15;1.98;;;;;;;;;;5108567;28;20059;-44
2022/08/21 01:28:56;;;;;;;6.10;1.25;;;;;;;;;;5108536;28;20047;-45
2022/08/21 01:31:23;;;;;;;0.90;0.52;;;;;;;;;;5107633;28;20054;-46
2022/08/21 01:33:48;;;;;;;3.38;2.10;;;;;;;;;;5107444;28;20036;-45
2022/08/21 01:36:13;;;;;;;1.60;0.95;;;;;;;;;;5107942;28;20078;-43
2022/08/21 01:38:39;;;;;;;2.63;1.10;;;;;;;;;;5106635;28;20606;-44
2022/08/21 01:41:04;;;;;;;1.92;0.90;;;;;;;;;;5108975;28;20049;-45
2022/08/21 01:43:29;;;;;;;2.05;0.88;;;;;;;;;;5108576;28;20035;-44
2022/08/21 01:45:54;;;;;;;2.50;0.40;;;;;;;;;;5108711;28;20043;-43
2022/08/21 01:48:20;;;;;;;1.73;0.50;;;;;;;;;;5107790;28;20563;-46
2022/08/21 01:50:45;;;;;;;0.88;0.63;;;;;;;;;;5108378;28;20490;-44
2022/08/21 01:53:10;;;;;;;0.80;0.55;;;;;;;;;;5105486;27;20043;-44
2022/08/21 01:55:36;;;;;;;0.55;0.40;;;;;;;;;;5106854;28;20043;-45
2022/08/21 01:58:01;;;;;;;3.40;1.08;;;;;;;;;;5105021;28;20118;-44
2022/08/21 02:00:26;;;;;;;0.63;0.40;;;;;;;;;;5108588;28;20048;-41
2022/08/21 02:02:52;;;;;;;1.20;0.65;;;;;;;;;;5108309;28;20031;-42
2022/08/21 02:05:18;;;;;;;2.42;1.33;;;;;;;;;;5108343;28;20070;-42
2022/08/21 02:07:48;;;;;;;0.98;0.80;;;;;;;;;;5108343;28;20047;-45
2022/08/21 02:10:15;;;;;;;1.85;1.30;;;;;;;;;;5107782;28;20101;-42
2022/08/21 02:12:40;;;;;;;5.28;1.83;;;;;;;;;;5108400;28;20047;-42
2022/08/21 02:15:07;;;;;;;3.17;1.85;;;;;;;;;;5106307;28;20724;-42
2022/08/21 02:17:38;;;;;;;3.63;1.48;;;;;;;;;;5106731;28;20058;-42
2022/08/21 02:20:04;;;;;;;1.67;0.82;;;;;;;;;;5106731;28;20047;-46
2022/08/21 02:22:29;;;;;;;4.72;1.48;;;;;;;;;;5107123;28;20043;-47
2022/08/21 02:24:55;;;;;;;1.38;1.05;;;;;;;;;;5105310;28;20051;-43
2022/08/21 02:27:20;;;;;;;2.58;1.13;;;;;;;;;;5106976;28;20097;-44
2022/08/21 02:29:46;;;;;;;1.75;1.50;;;;;;;;;;5104260;28;20047;-44
2022/08/21 02:32:11;;;;;;;0.75;0.70;;;;;;;;;;5106690;28;20044;-43
2022/08/21 02:34:36;;;;;;;2.15;1.10;;;;;;;;;;5107212;28;20043;-44
2022/08/21 02:37:01;;;;;;;0.68;0.50;;;;;;;;;;5107039;28;20055;-43
2022/08/21 02:39:27;;;;;;;1.02;0.55;;;;;;;;;;5106335;28;20395;-44
2022/08/21 02:41:52;;;;;;;0.85;0.75;;;;;;;;;;5108213;28;20513;-45
2022/08/21 02:44:17;;;;;;;1.88;0.85;;;;;;;;;;5107160;28;20051;-43
2022/08/21 02:46:43;;;;;;;5.13;0.85;;;;;;;;;;5107580;28;20062;-43
2022/08/21 02:49:08;;;;;;;3.50;0.88;;;;;;;;;;5106911;28;20075;-43
2022/08/21 02:51:33;;;;;;;2.08;1.38;;;;;;;;;;5106286;28;20126;-45
2022/08/21 02:53:59;;;;;;;1.15;0.73;;;;;;;;;;5105612;28;20055;-43
2022/08/21 02:56:24;;;;;;;1.85;1.08;;;;;;;;;;5107444;28;20043;-45
2022/08/21 02:58:51;;;;;;;1.70;1.48;;;;;;;;;;5107102;28;20122;-44
2022/08/21 03:01:17;;;;;;;3.92;1.50;;;;;;;;;;5106899;28;20112;-45
2022/08/21 03:03:43;;;;;;;4.45;1.20;;;;;;;;;;5105646;28;20043;-43
2022/08/21 03:06:09;;;;;;;3.97;2.88;;;;;;;;;;5106127;28;20130;-45
2022/08/21 03:08:35;;;;;;;9.18;0.70;;;;;;;;;;5106085;28;20086;-43
2022/08/21 03:11:01;;;;;;;1.48;0.75;;;;;;;;;;5106106;28;20059;-44
2022/08/21 03:13:27;;;;;;;1.52;1.00;;;;;;;;;;5107137;28;20070;-46
2022/08/21 03:15:53;;;;;;;1.80;0.85;;;;;;;;;;5106325;28;20067;-45
2022/08/21 03:18:18;;;;;;;2.00;1.13;;;;;;;;;;5105862;28;20043;-43
2022/08/21 03:20:44;;;;;;;2.53;0.77;;;;;;;;;;5106193;28;20149;-42
2022/08/21 03:23:10;;;;;;;0.73;0.50;;;;;;;;;;5104791;28;20046;-41
2022/08/21 03:25:35;;;;;;;0.85;0.40;;;;;;;;;;5105434;28;20043;-43
2022/08/21 03:28:01;;;;;;;0.75;0.68;;;;;;;;;;5107776;28;20058;-45
2022/08/21 03:30:27;;;;;;;1.35;0.60;;;;;;;;;;5104881;28;20047;-44
2022/08/21 03:32:52;;;;;;;3.33;0.77;;;;;;;;;;5107868;28;20047;-43
2022/08/21 03:35:18;;;;;;;1.65;0.70;;;;;;;;;;5106196;28;20047;-48
2022/08/21 03:37:44;;;;;;;1.95;0.20;;;;;;;;;;5107272;28;20047;-43
2022/08/21 03:40:11;;;;;;;3.50;2.67;;;;;;;;;;5107347;28;20044;-44
2022/08/21 03:42:36;;;;;;;1.55;0.90;;;;;;;;;;5106744;28;20044;-43
2022/08/21 03:45:02;;;;;;;1.23;0.85;;;;;;;;;;5106889;28;20455;-43
2022/08/21 03:47:28;;;;;;;2.65;2.45;;;;;;;;;;5106752;28;20035;-44
2022/08/21 03:49:54;;;;;;;4.88;0.73;;;;;;;;;;5102914;28;20066;-43
2022/08/21 03:52:19;;;;;;;2.80;0.47;;;;;;;;;;5105661;28;20145;-43
2022/08/21 03:54:45;;;;;;;1.63;0.90;;;;;;;;;;5105919;28;20067;-42
2022/08/21 03:57:10;;;;;;;3.80;0.63;;;;;;;;;;5105819;28;20160;-44
2022/08/21 03:59:37;;;;;;;2.85;1.30;;;;;;;;;;5105863;28;20071;-43
2022/08/21 04:02:03;;;;;;;1.20;0.57;;;;;;;;;;5106343;28;20093;-43
2022/08/21 04:04:29;;;;;;;0.77;0.43;;;;;;;;;;5105617;28;20043;-43
2022/08/21 04:06:54;;;;;;;5.93;0.70;;;;;;;;;;5105945;28;20052;-42
2022/08/21 04:09:20;;;;;;;0.93;0.45;;;;;;;;;;5106293;28;20462;-43
2022/08/21 04:11:46;;;;;;;2.28;0.80;;;;;;;;;;5107398;28;20063;-44
2022/08/21 04:14:12;;;;;;;1.88;0.85;;;;;;;;;;5105490;28;20051;-46
2022/08/21 04:16:37;;;;;;;0.85;0.47;;;;;;;;;;5106275;28;20044;-42
2022/08/21 04:19:03;;;;;;;0.85;0.40;;;;;;;;;;5106103;28;20086;-45
2022/08/21 04:21:29;;;;;;;0.68;0.50;;;;;;;;;;5104609;28;20067;-43
2022/08/21 04:23:55;;;;;;;0.52;0.43;;;;;;;;;;5105207;28;20063;-44
2022/08/21 04:26:20;;;;;;;0.55;0.40;;;;;;;;;;5106749;28;20040;-44
2022/08/21 04:28:45;;;;;;;1.15;0.55;;;;;;;;;;5110183;28;20059;-43
2022/08/21 04:31:11;;;;;;;2.50;1.10;;;;;;;;;;5091363;28;20036;-43
2022/08/21 04:33:36;;;;;;;1.58;1.13;;;;;;;;;;5109098;28;20092;-42
2022/08/21 04:36:02;;;;;;;0.68;0.60;;;;;;;;;;5106821;28;20371;-43
2022/08/21 04:38:27;;;;;;;1.25;0.75;;;;;;;;;;5109364;28;20507;-42
2022/08/21 04:40:52;;;;;;;1.48;0.75;;;;;;;;;;5110709;28;20372;-41
2022/08/21 04:43:18;;;;;;;1.55;1.13;;;;;;;;;;5109096;28;20437;-42
2022/08/21 04:45:47;;;;;;;0.50;0.40;;;;;;;;;;5109872;28;20126;-42
2022/08/21 04:48:13;;;;;;;9.85;1.45;;;;;;;;;;5110089;28;20035;-42
2022/08/21 04:50:47;;;;;;;1.08;0.60;;;;;;;;;;5110268;28;20127;-41
2022/08/21 04:53:17;;;;;;;7.63;0.88;;;;;;;;;;5108751;28;20067;-42
2022/08/21 04:55:44;;;;;;;2.50;1.58;;;;;;;;;;5109696;28;20082;-43
2022/08/21 04:58:11;;;;;;;1.92;0.82;;;;;;;;;;5108669;28;20070;-44
2022/08/21 05:00:36;;;;;;;1.42;0.82;;;;;;;;;;5109807;28;20575;-41
2022/08/21 05:03:03;;;;;;;4.07;1.13;;;;;;;;;;5108483;27;20052;-42
2022/08/21 05:05:29;;;;;;;3.38;0.68;;;;;;;;;;5108795;28;20039;-42
2022/08/21 05:07:55;;;;;;;1.45;0.88;;;;;;;;;;5108715;28;20506;-44
2022/08/21 05:10:22;;;;;;;4.55;0.65;;;;;;;;;;5108992;28;20808;-43
2022/08/21 05:12:47;;;;;;;2.38;0.50;;;;;;;;;;5109317;28;20141;-46
2022/08/21 05:15:13;;;;;;;2.53;0.77;;;;;;;;;;5110256;28;20475;-42
2022/08/21 05:17:40;;;;;;;2.25;1.33;;;;;;;;;;5110124;28;20058;-44
2022/08/21 05:20:06;;;;;;;2.45;1.23;;;;;;;;;;5109069;28;20649;-45
2022/08/21 05:22:31;;;;;;;4.78;1.67;;;;;;;;;;5108146;28;20131;-44
2022/08/21 05:24:56;;;;;;;1.65;1.13;;;;;;;;;;5109061;28;20056;-41
2022/08/21 05:27:22;;;;;;;0.90;0.80;;;;;;;;;;5108640;28;20134;-42
2022/08/21 05:29:47;;;;;;;2.75;1.15;;;;;;;;;;5108797;27;20031;-43
2022/08/21 05:32:13;;;;;;;1.48;1.02;;;;;;;;;;5108304;28;20364;-41
2022/08/21 05:34:39;;;;;;;7.22;2.08;;;;;;;;;;5109568;28;20048;-45
2022/08/21 05:37:04;;;;;;;4.38;1.58;;;;;;;;;;5108244;28;20055;-42
2022/08/21 05:39:30;;;;;;;0.80;0.52;;;;;;;;;;5108068;28;21005;-44
2022/08/21 05:41:55;;;;;;;5.60;1.90;;;;;;;;;;5108022;28;20040;-45
2022/08/21 05:44:20;;;;;;;4.53;1.45;;;;;;;;;;5108765;28;20108;-43
2022/08/21 05:46:46;;;;;;;12.52;7.65;;;;;;;;;;5108051;28;20039;-44
2022/08/21 05:49:11;;;;;;;9.70;3.50;;;;;;;;;;5106179;28;20044;-43
2022/08/21 05:51:38;;;;;;;2.65;0.93;;;;;;;;;;5106908;28;20059;-44
2022/08/21 05:54:04;;;;;;;3.40;1.73;;;;;;;;;;5102457;28;20043;-43
2022/08/21 05:56:29;;;;;;;3.15;1.05;;;;;;;;;;5107588;28;20060;-44
2022/08/21 05:58:55;;;;;;;1.42;0.77;;;;;;;;;;5106284;28;20745;-41
2022/08/21 06:01:20;;;;;;;3.33;1.67;;;;;;;;;;5108619;28;20038;-42
2022/08/21 06:03:46;;;;;;;3.72;1.55;;;;;;;;;;5106070;28;20067;-43
2022/08/21 06:06:11;;;;;;;1.60;1.27;;;;;;;;;;5106281;28;20419;-44
2022/08/21 06:08:36;;;;;;;1.42;0.93;;;;;;;;;;5108109;28;20089;-42
2022/08/21 06:11:03;;;;;;;2.58;1.35;;;;;;;;;;5108429;28;20521;-43
2022/08/21 06:13:28;;;;;;;2.65;1.75;;;;;;;;;;5108096;28;20044;-42
2022/08/21 06:16:05;;;;;;;2.17;1.23;;;;;;;;;;5103095;28;20085;-43
2022/08/21 06:18:31;;;;;;;1.30;0.88;;;;;;;;;;5107560;28;20089;-42
2022/08/21 06:20:56;;;;;;;4.38;1.73;;;;;;;;;;5107532;28;20032;-43
2022/08/21 06:23:22;;;;;;;1.75;1.23;;;;;;;;;;5106434;28;20067;-42
2022/08/21 06:25:47;;;;;;;2.60;1.92;;;;;;;;;;5103239;28;20040;-43
2022/08/21 06:28:12;;;;;;;3.20;2.25;;;;;;;;;;5105223;28;20109;-44
2022/08/21 06:30:39;;;;;;;2.15;1.73;;;;;;;;;;5107643;28;20443;-42
2022/08/21 06:33:05;;;;;;;2.50;1.15;;;;;;;;;;5107063;28;20112;-44
2022/08/21 06:35:31;;;;;;;2.70;1.38;;;;;;;;;;5108090;28;20043;-45
2022/08/21 06:37:57;;;;;;;2.17;1.20;;;;;;;;;;5105015;28;20044;-42
2022/08/21 06:40:22;;;;;;;2.67;1.50;;;;;;;;;;5108266;28;20146;-42
2022/08/21 06:42:48;;;;;;;3.75;1.20;;;;;;;;;;5107990;28;20401;-42
2022/08/21 06:45:13;;;;;;;3.17;1.63;;;;;;;;;;5107388;28;20141;-44
2022/08/21 06:47:39;;;;;;;1.88;1.17;;;;;;;;;;5106826;28;20093;-43
2022/08/21 06:50:07;;;;;;;1.23;0.82;;;;;;;;;;5107207;28;20050;-41
2022/08/21 06:52:32;;;;;;;2.83;1.00;;;;;;;;;;5106842;28;20105;-41
2022/08/21 06:54:58;;;;;;;2.28;0.90;;;;;;;;;;5107620;28;20493;-41
2022/08/21 06:57:23;;;;;;;1.33;0.57;;;;;;;;;;5107130;28;20130;-41
2022/08/21 06:59:48;;;;;;;1.20;0.73;;;;;;;;;;5107643;28;20493;-42
2022/08/21 07:02:14;;;;;;;1.38;0.73;;;;;;;;;;5107764;28;20043;-42
2022/08/21 07:04:39;;;;;;;2.42;0.77;;;;;;;;;;5107259;28;20637;-42
2022/08/21 07:07:04;;;;;;;1.10;0.60;;;;;;;;;;5105077;28;20051;-42
2022/08/21 07:09:30;;;;;;;0.73;0.35;;;;;;;;;;5106875;28;20086;-44
2022/08/21 07:11:56;;;;;;;2.60;1.33;;;;;;;;;;5107814;28;20062;-42
2022/08/21 07:14:22;;;;;;;0.40;0.30;;;;;;;;;;5104927;28;20672;-41
2022/08/21 07:16:47;;;;;;;1.30;0.52;;;;;;;;;;5106820;28;20064;-41
2022/08/21 07:19:13;;;;;;;14.25;2.95;;;;;;;;;;5106834;28;20040;-43
2022/08/21 07:21:38;;;;;;;13.27;2.38;;;;;;;;;;5103096;28;20039;-41
2022/08/21 07:24:03;;;;;;;2.40;1.67;;;;;;;;;;5103692;28;20039;-41
2022/08/21 07:26:29;;;;;;;4.22;3.25;;;;;;;;;;5105816;28;20054;-44
2022/08/21 07:28:54;;;;;;;7.63;6.78;;;;;;;;;;5106043;28;20056;-41
2022/08/21 07:31:21;;;;;;;8.50;5.82;;;;;;;;;;5104870;28;20089;-41
2022/08/21 07:33:46;;;;;;;10.40;5.03;;;;;;;;;;5106844;28;20055;-42
2022/08/21 07:36:11;;;;;;;7.00;4.47;;;;;;;;;;5105389;28;20047;-40
2022/08/21 07:38:37;;;;;;;4.68;3.25;;;;;;;;;;5105169;28;20466;-41
2022/08/21 07:41:05;;;;;;;12.23;4.72;;;;;;;;;;5105059;28;20039;-42
2022/08/21 07:43:31;;;;;;;13.80;4.22;;;;;;;;;;5104453;28;20073;-42
2022/08/21 07:45:56;;;;;;;5.00;2.80;;;;;;;;;;5105101;28;20035;-41
2022/08/21 07:48:22;;;;;;;4.07;2.13;;;;;;;;;;5103066;28;20063;-41
2022/08/21 07:50:47;;;;;;;3.85;2.88;;;;;;;;;;5106007;28;20487;-40
2022/08/21 07:53:13;;;;;;;3.35;1.50;;;;;;;;;;5104762;28;20044;-41
2022/08/21 07:55:38;;;;;;;9.32;8.43;;;;;;;;;;5104934;28;20051;-42
2022/08/21 07:58:04;;;;;;;4.15;1.88;;;;;;;;;;5104781;28;20040;-40
2022/08/21 08:00:30;;;;;;;2.65;1.15;;;;;;;;;;5103700;28;20057;-40
2022/08/21 08:02:56;;;;;;;1.15;0.75;;;;;;;;;;5108823;28;20056;-43
2022/08/21 08:05:23;;;;;;;6.30;1.48;;;;;;;;;;5107668;28;20680;-41
2022/08/21 08:07:48;;;;;;;2.50;1.75;;;;;;;;;;5108696;28;20050;-41
2022/08/21 08:10:15;;;;;;;0.65;0.40;;;;;;;;;;5110039;28;20058;-41
2022/08/21 08:12:41;;;;;;;1.30;0.77;;;;;;;;;;5107530;28;20040;-41
2022/08/21 08:15:09;;;;;;;0.90;0.60;;;;;;;;;;5110684;28;20047;-40
2022/08/21 08:17:34;;;;;;;4.38;2.70;;;;;;;;;;5107913;28;20073;-41
2022/08/21 08:20:02;;;;;;;0.47;0.30;;;;;;;;;;5106186;28;20135;-42
2022/08/21 08:22:28;;;;;;;1.75;0.82;;;;;;;;;;5106609;28;20395;-41
2022/08/21 08:24:54;;;;;;;0.30;0.30;;;;;;;;;;5109251;28;20058;-43
2022/08/21 08:27:19;;;;;;;0.63;0.30;;;;;;;;;;5108913;28;20082;-42
2022/08/21 08:29:45;;;;;;;0.50;0.22;;;;;;;;;;5109705;28;20100;-39
2022/08/21 08:32:10;;;;;;;0.95;0.32;;;;;;;;;;5108818;28;20066;-41
2022/08/21 08:34:37;;;;;;;1.05;0.47;;;;;;;;;;5109663;28;20092;-40
2022/08/21 08:37:03;;;;;;;0.52;0.30;;;;;;;;;;5107241;28;20042;-41
2022/08/21 08:39:28;;;;;;;0.30;0.20;;;;;;;;;;5108838;27;20036;-42
2022/08/21 08:41:59;;;;;;;0.68;0.40;;;;;;;;;;5108126;28;20138;-41
2022/08/21 08:44:24;;;;;;;1.17;0.57;;;;;;;;;;5108371;28;20028;-40
2022/08/21 08:46:50;;;;;;;3.03;2.35;;;;;;;;;;5089931;28;20039;-42
2022/08/21 08:49:20;;;;;;;48.85;7.13;;;;;;;;;;5110002;28;20066;-52
2022/08/21 08:52:00;;;;;;;0.80;0.30;;;;;;;;;;5107636;28;20047;-53
2022/08/21 08:54:31;;;;;;;4.97;2.40;;;;;;;;;;5104721;28;20515;-56
2022/08/21 08:57:00;;;;;;;0.85;0.52;;;;;;;;;;5108324;28;20036;-57
2022/08/21 08:59:27;;;;;;;0.73;0.28;;;;;;;;;;5109651;28;20502;-58
2022/08/21 09:01:53;;;;;;;0.55;0.22;;;;;;;;;;5107788;28;20046;-58
2022/08/21 09:04:28;;;;;;;1.10;0.60;;;;;;;;;;5108989;28;20039;-58
2022/08/21 09:07:12;;;;;;;2.83;1.05;;;;;;;;;;5106573;28;20050;-59
2022/08/21 09:09:37;;;;;;;0.10;0.10;;;;;;;;;;5108659;28;20056;-56
2022/08/21 09:12:10;;;;;;;2.13;0.80;;;;;;;;;;5109839;28;20155;-56
2022/08/21 09:14:35;;;;;;;0.60;0.40;;;;;;;;;;5108558;28;20503;-51
2022/08/21 09:17:09;;;;;;;0.98;0.55;;;;;;;;;;5110058;28;20040;-49
2022/08/21 09:19:53;;;;;;;0.55;0.17;;;;;;;;;;5109688;28;20517;-51
2022/08/21 09:22:30;;;;;;;0.50;0.35;;;;;;;;;;5108443;28;20036;-50
2022/08/21 09:25:18;;;;;;;0.35;0.30;;;;;;;;;;5108052;28;20046;-52
2022/08/21 09:27:43;;;;;;;0.57;0.43;;;;;;;;;;5107509;28;20032;-49
2022/08/21 09:30:09;;;;;;;1.50;0.30;;;;;;;;;;5108724;28;20375;-48
2022/08/21 09:32:36;;;;;;;5.63;0.63;;;;;;;;;;5109482;28;20071;-51
2022/08/21 09:35:04;;;;;;;0.75;0.47;;;;;;;;;;5108867;28;20039;-51
2022/08/21 09:37:31;;;;;;;0.88;0.30;;;;;;;;;;5107453;28;21247;-48
2022/08/21 09:39:57;;;;;;;1.10;0.22;;;;;;;;;;5105705;28;20494;-51
2022/08/21 09:42:24;;;;;;;0.77;0.28;;;;;;;;;;5105982;28;20043;-52
2022/08/21 09:45:04;;;;;;;0.55;0.40;;;;;;;;;;5105928;28;20036;-53
2022/08/21 09:47:30;;;;;;;0.30;0.22;;;;;;;;;;5107504;28;20082;-55
2022/08/21 09:49:55;;;;;;;0.20;0.10;;;;;;;;;;5106834;28;20478;-54
2022/08/21 09:52:22;;;;;;;0.95;0.35;;;;;;;;;;5108076;28;20457;-51
2022/08/21 09:54:50;;;;;;;0.40;0.30;;;;;;;;;;5108468;28;20138;-51
2022/08/21 09:57:39;;;;;;;2.30;0.38;;;;;;;;;;5107605;28;20044;-52
2022/08/21 10:00:25;;;;;;;0.98;0.45;;;;;;;;;;5105334;28;20059;-52
2022/08/21 10:02:50;;;;;;;0.60;0.40;;;;;;;;;;5106912;28;20043;-55
2022/08/21 10:05:26;;;;;;;1.92;0.52;;;;;;;;;;5107866;28;20052;-57
2022/08/21 10:07:51;;;;;;;0.90;0.30;;;;;;;;;;5109194;27;20035;-56
2022/08/21 10:10:22;;;;;;;0.40;0.20;;;;;;;;;;5106991;28;20067;-57
2022/08/21 10:12:47;;;;;;;;;;;;;;;;;;5108278;28;20035;-56
2022/08/21 10:15:20;;;;;;;1.65;0.43;;;;;;;;;;5107610;28;19912;-61
2022/08/21 10:18:02;;;;;;;1.35;0.20;;;;;;;;;;5108071;28;20043;-58
2022/08/21 10:20:27;;;;;;;0.32;0.30;;;;;;;;;;5103770;28;20493;-58
2022/08/21 10:23:07;;;;;;;2.00;0.30;;;;;;;;;;5105360;28;20047;-58
2022/08/21 10:26:06;;;;;;;0.30;0.20;;;;;;;;;;5106791;28;20055;-58
2022/08/21 10:28:37;;;;;;;2.95;0.80;;;;;;;;;;5067127;28;20521;-59
2022/08/21 10:31:02;;;;;;;0.98;0.52;;;;;;;;;;5106017;28;20059;-58
2022/08/21 10:33:42;;;;;;;0.70;0.45;;;;;;;;;;5106999;27;20044;-59
2022/08/21 10:36:11;;;;;;;0.47;0.35;;;;;;;;;;5102975;27;20142;-60
2022/08/21 10:38:39;;;;;;;0.70;0.50;;;;;;;;;;5102764;28;20059;-60
2022/08/21 10:41:19;;;;;;;0.32;0.10;;;;;;;;;;5105948;28;20078;-59
2022/08/21 10:43:45;;;;;;;4.10;0.10;;;;;;;;;;5104915;28;20046;-60
2022/08/21 10:46:13;;;;;;;0.28;0.17;;;;;;;;;;5102607;28;20122;-60
2022/08/21 10:48:50;;;;;;;0.80;0.35;;;;;;;;;;5105712;27;20043;-60
2022/08/21 10:51:20;;;;;;;0.28;0.10;;;;;;;;;;5103172;28;20047;-59
2022/08/21 10:53:46;;;;;;;1.87;0.60;;;;;;;;;;5104385;28;20035;-59
2022/08/21 10:56:20;;;;;;;0.73;0.45;;;;;;;;;;5103696;28;20379;-61
2022/08/21 10:59:04;;;;;;;0.30;0.30;;;;;;;;;;5104465;28;20036;-60
2022/08/21 11:01:41;;;;;;;0.93;0.20;;;;;;;;;;5106192;28;20047;-60
2022/08/21 11:04:12;;;;;;;1.25;0.30;;;;;;;;;;5105917;28;20045;-60
2022/08/21 11:06:40;;;;;;;6.25;0.30;;;;;;;;;;5102507;28;20051;-60
2022/08/21 11:09:11;;;;;;;4.05;0.32;;;;;;;;;;5104295;28;20043;-59
2022/08/21 11:11:41;;;;;;;3.15;0.57;;;;;;;;;;5101819;28;20043;-61
2022/08/21 11:14:17;;;;;;;0.68;0.57;;;;;;;;;;5104939;28;20077;-61
2022/08/21 11:16:56;;;;;;;0.25;0.15;;;;;;;;;;5103628;28;20070;-61
2022/08/21 11:19:51;;;;;;;0.20;0.10;;;;;;;;;;5105182;28;20119;-62
2022/08/21 11:22:21;;;;;;;0.40;0.25;;;;;;;;;;5048684;28;20098;-63
2022/08/21 11:24:49;;;;;;;1.30;0.53;;;;;;;;;;5098436;28;20129;-63
2022/08/21 11:27:20;;;;;;;0.93;0.22;;;;;;;;;;5104337;28;20082;-63
2022/08/21 11:29:48;;;;;;;0.52;0.50;;;;;;;;;;5102901;28;20036;-63
2022/08/21 11:32:26;;;;;;;1.17;0.22;;;;;;;;;;5104773;28;20725;-63
2022/08/21 11:35:00;;;;;;;0.95;0.30;;;;;;;;;;5099738;28;20096;-63
2022/08/21 11:37:38;;;;;;;0.52;0.30;;;;;;;;;;5104898;28;20109;-63
2022/08/21 11:40:12;;;;;;;1.70;0.35;;;;;;;;;;5103663;28;20104;-64
2022/08/21 11:42:48;;;;;;;0.77;0.40;;;;;;;;;;5102879;28;20047;-63
2022/08/21 11:45:21;;;;;;;0.32;0.20;;;;;;;;;;5104271;28;20043;-63
2022/08/21 11:47:54;;;;;;;1.23;0.40;;;;;;;;;;5104986;28;20112;-64
2022/08/21 11:50:31;;;;;;;0.25;0.20;;;;;;;;;;5103258;28;20039;-62
2022/08/21 11:52:59;;;;;;;0.90;0.20;;;;;;;;;;5103268;28;20047;-62
2022/08/21 11:55:40;;;;;;;0.55;0.30;;;;;;;;;;5104775;28;20104;-62
2022/08/21 11:58:16;;;;;;;1.40;0.70;;;;;;;;;;5102329;28;20150;-62
2022/08/21 12:00:41;;;;;;;0.70;0.40;;;;;;;;;;5101905;28;20071;-62
2022/08/21 12:03:14;;;;;;;1.30;0.70;;;;;;;;;;5103553;28;20071;-62
2022/08/21 12:05:41;;;;;;;0.68;0.43;;;;;;;;;;5103326;28;20051;-63
2022/08/21 12:08:09;;;;;;;1.13;0.40;;;;;;;;;;5103022;28;20059;-64
2022/08/21 12:10:45;;;;;;;0.35;0.20;;;;;;;;;;5103575;28;20054;-63
2022/08/21 12:13:30;;;;;;;1.15;0.50;;;;;;;;;;5102273;28;20043;-62
2022/08/21 12:16:06;;;;;;;2.30;1.40;;;;;;;;;;5102258;28;20043;-62
2022/08/21 12:18:32;;;;;;;6.47;1.50;;;;;;;;;;5102822;28;20073;-62
2022/08/21 12:21:00;;;;;;;2.60;1.75;;;;;;;;;;5101655;28;20079;-62
2022/08/21 12:23:27;;;;;;;10.60;5.88;;;;;;;;;;5102866;28;20051;-62
2022/08/21 12:26:00;;;;;;;7.43;4.80;;;;;;;;;;5104847;28;20032;-62
2022/08/21 12:28:26;;;;;;;7.30;3.45;;;;;;;;;;5103047;28;20166;-62
2022/08/21 12:30:51;;;;;;;5.28;3.03;;;;;;;;;;5104067;28;20138;-62
2022/08/21 12:33:26;;;;;;;6.60;3.13;;;;;;;;;;5104150;28;20048;-62
2022/08/21 12:35:53;;;;;;;4.75;3.95;;;;;;;;;;5104326;28;20038;-62
2022/08/21 12:38:21;;;;;;;2.22;1.65;;;;;;;;;;5103151;28;20080;-62
2022/08/21 12:41:01;;;;;;;3.35;2.63;;;;;;;;;;5104535;28;20040;-62
2022/08/21 12:43:33;;;;;;;2.70;2.22;;;;;;;;;;5102187;28;20028;-62
2022/08/21 12:46:00;;;;;;;6.65;2.13;;;;;;;;;;5101736;28;20040;-63
2022/08/21 12:48:33;;;;;;;4.82;1.52;;;;;;;;;;5106108;28;20047;-58
2022/08/21 12:51:10;;;;;;;2.80;1.05;;;;;;;;;;5104986;27;20108;-57
2022/08/21 12:53:41;;;;;;;4.30;1.92;;;;;;;;;;5104885;28;20569;-56
2022/08/21 12:56:11;;;;;;;1.60;1.00;;;;;;;;;;5102161;28;20039;-57
2022/08/21 12:58:39;;;;;;;2.15;1.02;;;;;;;;;;5099236;28;20036;-59
2022/08/21 13:01:07;;;;;;;1.23;0.85;;;;;;;;;;5106230;27;20628;-58
2022/08/21 13:03:35;;;;;;;0.98;0.50;;;;;;;;;;5109047;27;20069;-59
2022/08/21 13:06:03;;;;;;;1.88;0.77;;;;;;;;;;5088906;28;20043;-59
2022/08/21 13:08:29;;;;;;;1.30;1.00;;;;;;;;;;5106443;27;20401;-59
2022/08/21 13:11:03;;;;;;;2.13;0.85;;;;;;;;;;5110251;27;20138;-59
2022/08/21 13:13:29;;;;;;;1.20;0.43;;;;;;;;;;5110607;27;20597;-59
2022/08/21 13:16:02;;;;;;;1.20;0.80;;;;;;;;;;5109239;27;20126;-59
2022/08/21 13:18:29;;;;;;;1.38;0.52;;;;;;;;;;5108154;27;20128;-59
2022/08/21 13:21:10;;;;;;;2.60;0.98;;;;;;;;;;5109185;27;20564;-58
2022/08/21 13:23:35;;;;;;;0.88;0.32;;;;;;;;;;5107290;28;20039;-57
2022/08/21 13:26:03;;;;;;;8.90;0.88;;;;;;;;;;5106865;28;20387;-57
2022/08/21 13:28:33;;;;;;;0.70;0.40;;;;;;;;;;5105836;28;20120;-58
2022/08/21 13:30:59;;;;;;;1.73;0.73;;;;;;;;;;5097727;28;20523;-57
2022/08/21 13:33:26;;;;;;;0.95;0.40;;;;;;;;;;5104873;28;20082;-58
2022/08/21 13:36:02;;;;;;;0.38;0.30;;;;;;;;;;5105097;28;20135;-57
2022/08/21 13:38:30;;;;;;;0.65;0.30;;;;;;;;;;5102728;28;20039;-58
2022/08/21 13:40:57;;;;;;;7.55;0.65;;;;;;;;;;5107318;27;20055;-58
2022/08/21 13:43:26;;;;;;;1.77;0.60;;;;;;;;;;5108346;27;20042;-58
2022/08/21 13:45:53;;;;;;;0.20;0.20;;;;;;;;;;5109899;27;20055;-58
2022/08/21 13:48:18;;;;;;;4.45;1.15;;;;;;;;;;5106162;27;20060;-57
2022/08/21 13:50:44;;;;;;;1.30;0.65;;;;;;;;;;5106320;27;20040;-57
2022/08/21 13:53:39;;;;;;;0.95;0.63;;;;;;;;;;5105045;28;20051;-57
2022/08/21 13:56:04;;;;;;;1.92;0.70;;;;;;;;;;5013847;27;20112;-59
2022/08/21 13:58:43;;;;;;;2.53;0.28;;;;;;;;;;5107180;27;20052;-57
2022/08/21 14:01:18;;;;;;;0.20;0.20;;;;;;;;;;5105146;28;20115;-57
2022/08/21 14:03:45;;;;;;;0.50;0.30;;;;;;;;;;5107406;28;20055;-58
2022/08/21 14:06:11;;;;;;;10.93;0.45;;;;;;;;;;5105880;28;20123;-59
2022/08/21 14:08:39;;;;;;;0.57;0.40;;;;;;;;;;5102924;28;20152;-59
2022/08/21 14:11:05;;;;;;;0.50;0.20;;;;;;;;;;5105409;28;20055;-59
2022/08/21 14:13:40;;;;;;;1.75;0.20;;;;;;;;;;5104926;28;20055;-59
2022/08/21 14:16:13;;;;;;;0.40;0.25;;;;;;;;;;5104023;28;20031;-59
2022/08/21 14:18:48;;;;;;;0.15;0.10;;;;;;;;;;5102092;28;20039;-59
2022/08/21 14:21:13;;;;;;;0.30;0.20;;;;;;;;;;5106332;28;20073;-59
2022/08/21 14:23:39;;;;;;;0.32;0.20;;;;;;;;;;5105985;27;20048;-60
2022/08/21 14:26:06;;;;;;;0.68;0.28;;;;;;;;;;5108332;27;20043;-59
2022/08/21 14:28:33;;;;;;;2.05;0.20;;;;;;;;;;5103179;27;20714;-60
2022/08/21 14:31:12;;;;;;;3.47;0.45;;;;;;;;;;5103881;28;20048;-59
2022/08/21 14:33:37;;;;;;;1.35;0.73;;;;;;;;;;5107646;27;20034;-59
2022/08/21 14:36:02;;;;;;;1.63;0.50;;;;;;;;;;5086543;28;20047;-59
2022/08/21 14:38:28;;;;;;;0.73;0.55;;;;;;;;;;5106936;27;20063;-61
2022/08/21 14:41:04;;;;;;;0.65;0.43;;;;;;;;;;5106949;27;20039;-58
2022/08/21 14:43:30;;;;;;;1.00;0.40;;;;;;;;;;5101953;27;20411;-58
2022/08/21 14:45:56;;;;;;;0.10;0.10;;;;;;;;;;5107130;27;20093;-59
2022/08/21 14:48:21;;;;;;;2.35;0.88;;;;;;;;;;5104420;28;20554;-59